createdAt,value
2018-05-26T00:00:00.352Z,58.33
2018-05-26T00:01:00.280Z,57.65
2018-05-26T00:02:00.287Z,56.87
2018-05-26T00:03:00.234Z,57.26
2018-05-26T00:04:00.328Z,56.97
2018-05-26T00:05:00.265Z,55.81
2018-05-26T00:06:00.208Z,56.00
2018-05-26T00:07:00.133Z,55.71
2018-05-26T00:08:00.118Z,54.55
2018-05-26T00:09:00.217Z,54.26
2018-05-26T00:10:02.466Z,54.26
2018-05-26T00:11:01.548Z,53.58
2018-05-26T00:12:00.063Z,53.39
2018-05-26T00:13:00.004Z,52.61
2018-05-26T00:14:00.028Z,52.51
2018-05-26T00:14:59.951Z,52.51
2018-05-26T00:16:00.046Z,52.22
2018-05-26T00:16:59.869Z,51.84
2018-05-26T00:17:59.891Z,52.12
2018-05-26T00:18:59.889Z,52.61
2018-05-26T00:19:59.805Z,52.32
2018-05-26T00:20:59.881Z,52.97
2018-05-26T00:21:59.766Z,53.75
2018-05-26T00:22:59.741Z,53.87
2018-05-26T00:23:59.724Z,53.65
2018-05-26T00:24:59.694Z,53.55
2018-05-26T00:25:59.682Z,54.52
2018-05-26T00:26:59.619Z,54.13
2018-05-26T00:27:59.679Z,54.13
2018-05-26T00:29:01.087Z,54.23
2018-05-26T00:30:01.200Z,53.26
2018-05-26T00:31:01.923Z,53.07
2018-05-26T00:31:59.530Z,52.49
2018-05-26T00:32:59.520Z,52.78
2018-05-26T00:33:59.478Z,52.97
2018-05-26T00:34:59.440Z,52.87
2018-05-26T00:35:59.477Z,52.87
2018-05-26T00:36:59.483Z,52.68
2018-05-26T00:37:59.392Z,52.68
2018-05-26T00:38:59.331Z,52.78
2018-05-26T00:39:59.394Z,52.49
2018-05-26T00:40:59.296Z,52.20
2018-05-26T00:41:59.341Z,52.29
2018-05-26T00:42:59.266Z,51.72
2018-05-26T00:43:59.191Z,52.00
2018-05-26T00:44:59.279Z,51.81
2018-05-26T00:45:59.253Z,51.32
2018-05-26T00:46:59.244Z,51.04
2018-05-26T00:47:59.240Z,51.13
2018-05-26T00:48:59.117Z,51.23
2018-05-26T00:49:59.046Z,50.65
2018-05-26T00:50:59.017Z,50.74
2018-05-26T00:51:59.037Z,50.84
2018-05-26T00:52:59.305Z,50.74
2018-05-26T00:53:58.965Z,50.55
2018-05-26T00:54:58.938Z,50.45
2018-05-26T00:55:58.896Z,50.45
2018-05-26T00:56:58.875Z,50.55
2018-05-26T00:57:58.920Z,50.84
2018-05-26T00:58:58.855Z,50.35
2018-05-26T00:59:58.816Z,50.84
2018-05-26T01:00:58.806Z,51.59
2018-05-26T01:01:58.739Z,51.40
2018-05-26T01:02:58.800Z,51.13
2018-05-26T01:03:58.669Z,51.23
2018-05-26T01:04:58.652Z,50.94
2018-05-26T01:05:58.870Z,51.01
2018-05-26T01:06:58.618Z,50.35
2018-05-26T01:07:58.685Z,50.62
2018-05-26T01:08:58.589Z,50.35
2018-05-26T01:09:58.602Z,50.74
2018-05-26T01:10:58.502Z,50.26
2018-05-26T01:11:58.481Z,50.26
2018-05-26T01:12:58.569Z,50.16
2018-05-26T01:13:58.418Z,50.26
2018-05-26T01:14:58.453Z,50.74
2018-05-26T01:15:58.431Z,50.35
2018-05-26T01:16:58.343Z,50.16
2018-05-26T01:17:58.403Z,50.26
2018-05-26T01:18:59.701Z,50.65
2018-05-26T01:19:58.280Z,50.24
2018-05-26T01:20:58.253Z,50.26
2018-05-26T01:21:58.274Z,50.16
2018-05-26T01:22:58.243Z,50.35
2018-05-26T01:23:58.334Z,50.26
2018-05-26T01:24:58.205Z,50.26
2018-05-26T01:25:58.166Z,50.26
2018-05-26T01:26:58.088Z,50.45
2018-05-26T01:27:58.068Z,50.62
2018-05-26T01:28:58.088Z,50.45
2018-05-26T01:29:58.007Z,50.04
2018-05-26T01:30:57.979Z,50.35
2018-05-26T01:31:57.966Z,50.26
2018-05-26T01:32:58.194Z,50.33
2018-05-26T01:33:58.067Z,50.35
2018-05-26T01:34:57.945Z,50.45
2018-05-26T01:35:57.905Z,50.16
2018-05-26T01:36:57.827Z,50.26
2018-05-26T01:37:57.847Z,50.45
2018-05-26T01:38:57.888Z,49.87
2018-05-26T01:39:58.007Z,49.97
2018-05-26T01:40:57.776Z,49.97
2018-05-26T01:41:57.757Z,50.07
2018-05-26T01:42:57.725Z,49.87
2018-05-26T01:43:57.815Z,50.26
2018-05-26T01:44:57.620Z,50.26
2018-05-26T01:45:57.848Z,50.45
2018-05-26T01:46:57.636Z,49.87
2018-05-26T01:47:57.598Z,49.97
2018-05-26T01:49:03.068Z,49.58
2018-05-26T01:49:57.498Z,49.29
2018-05-26T01:50:57.508Z,49.10
2018-05-26T01:51:57.511Z,49.49
2018-05-26T01:52:57.452Z,49.49
2018-05-26T01:53:57.481Z,49.39
2018-05-26T01:54:57.493Z,49.49
2018-05-26T01:55:57.382Z,49.39
2018-05-26T01:56:57.360Z,49.49
2018-05-26T01:57:57.306Z,49.41
2018-05-26T01:58:57.299Z,49.49
2018-05-26T01:59:57.258Z,49.39
2018-05-26T02:00:57.255Z,49.29
2018-05-26T02:01:57.797Z,49.41
2018-05-26T02:02:57.171Z,49.19
2018-05-26T02:03:57.214Z,49.10
2018-05-26T02:04:57.132Z,49.19
2018-05-26T02:05:57.142Z,49.29
2018-05-26T02:06:57.082Z,49.19
2018-05-26T02:07:57.052Z,49.19
2018-05-26T02:08:57.310Z,48.93
2018-05-26T02:09:57.063Z,48.83
2018-05-26T02:10:56.998Z,49.22
2018-05-26T02:11:56.951Z,48.93
2018-05-26T02:12:56.912Z,49.22
2018-05-26T02:13:56.876Z,49.32
2018-05-26T02:14:56.879Z,49.02
2018-05-26T02:15:56.917Z,49.41
2018-05-26T02:16:56.799Z,49.39
2018-05-26T02:17:56.789Z,49.41
2018-05-26T02:18:56.770Z,49.51
2018-05-26T02:19:56.764Z,49.41
2018-05-26T02:20:56.787Z,49.61
2018-05-26T02:21:56.692Z,49.41
2018-05-26T02:22:56.655Z,49.32
2018-05-26T02:23:56.744Z,49.12
2018-05-26T02:24:56.590Z,49.41
2018-05-26T02:25:56.675Z,49.41
2018-05-26T02:26:56.591Z,49.41
2018-05-26T02:27:56.543Z,49.61
2018-05-26T02:28:56.582Z,49.49
2018-05-26T02:29:56.475Z,49.41
2018-05-26T02:30:56.479Z,49.80
2018-05-26T02:31:56.578Z,49.80
2018-05-26T02:32:56.404Z,50.19
2018-05-26T02:33:56.418Z,49.77
2018-05-26T02:34:56.344Z,49.80
2018-05-26T02:35:56.329Z,49.51
2018-05-26T02:36:56.281Z,49.80
2018-05-26T02:37:56.369Z,49.61
2018-05-26T02:38:56.247Z,49.41
2018-05-26T02:39:56.215Z,49.32
2018-05-26T02:40:56.439Z,49.41
2018-05-26T02:41:56.170Z,49.32
2018-05-26T02:42:56.318Z,49.12
2018-05-26T02:43:56.112Z,49.41
2018-05-26T02:44:56.085Z,49.32
2018-05-26T02:45:56.043Z,49.41
2018-05-26T02:46:56.100Z,49.90
2018-05-26T02:47:56.122Z,49.32
2018-05-26T02:48:55.976Z,49.41
2018-05-26T02:49:55.958Z,49.61
2018-05-26T02:50:55.975Z,49.80
2018-05-26T02:51:55.912Z,50.19
2018-05-26T02:52:55.993Z,50.09
2018-05-26T02:53:55.871Z,50.29
2018-05-26T02:54:55.849Z,50.09
2018-05-26T02:55:55.803Z,49.90
2018-05-26T02:56:55.801Z,49.99
2018-05-26T02:57:55.853Z,50.09
2018-05-26T02:58:55.736Z,49.90
2018-05-26T02:59:55.692Z,50.35
2018-05-26T03:00:55.671Z,50.84
2018-05-26T03:01:55.651Z,50.94
2018-05-26T03:02:55.727Z,50.94
2018-05-26T03:03:55.590Z,51.50
2018-05-26T03:04:55.584Z,51.68
2018-05-26T03:05:55.542Z,51.78
2018-05-26T03:06:55.524Z,51.59
2018-05-26T03:07:55.578Z,52.27
2018-05-26T03:08:55.476Z,52.44
2018-05-26T03:09:55.567Z,51.86
2018-05-26T03:10:55.942Z,51.86
2018-05-26T03:11:55.408Z,52.24
2018-05-26T03:12:55.371Z,51.76
2018-05-26T03:13:55.436Z,51.47
2018-05-26T03:14:55.318Z,51.66
2018-05-26T03:15:55.281Z,51.56
2018-05-26T03:16:55.288Z,51.47
2018-05-26T03:17:55.247Z,51.47
2018-05-26T03:18:55.311Z,51.66
2018-05-26T03:19:55.174Z,51.54
2018-05-26T03:20:55.188Z,51.44
2018-05-26T03:21:55.128Z,51.08
2018-05-26T03:22:55.091Z,51.08
2018-05-26T03:23:55.165Z,50.86
2018-05-26T03:24:55.049Z,50.96
2018-05-26T03:25:55.035Z,50.48
2018-05-26T03:26:55.003Z,50.40
2018-05-26T03:27:54.969Z,50.28
2018-05-26T03:28:55.065Z,50.67
2018-05-26T03:29:54.958Z,50.40
2018-05-26T03:30:54.891Z,50.40
2018-05-26T03:31:54.873Z,50.86
2018-05-26T03:32:54.851Z,50.86
2018-05-26T03:33:54.929Z,50.86
2018-05-26T03:34:54.831Z,51.06
2018-05-26T03:35:54.779Z,50.76
2018-05-26T03:36:54.749Z,51.06
2018-05-26T03:37:54.752Z,50.86
2018-05-26T03:38:54.775Z,50.76
2018-05-26T03:39:54.662Z,50.96
2018-05-26T03:40:54.639Z,51.54
2018-05-26T03:41:54.708Z,51.81
2018-05-26T03:42:54.612Z,52.00
2018-05-26T03:43:54.652Z,51.42
2018-05-26T03:44:54.630Z,51.64
2018-05-26T03:45:54.549Z,51.90
2018-05-26T03:46:54.491Z,51.71
2018-05-26T03:47:54.568Z,51.42
2018-05-26T03:48:54.423Z,51.51
2018-05-26T03:49:54.404Z,51.90
2018-05-26T03:50:54.374Z,51.90
2018-05-26T03:51:54.413Z,51.90
2018-05-26T03:52:54.304Z,51.90
2018-05-26T03:53:54.299Z,51.90
2018-05-26T03:54:54.240Z,51.81
2018-05-26T03:55:54.311Z,52.29
2018-05-26T03:56:54.191Z,51.97
2018-05-26T03:57:54.204Z,52.07
2018-05-26T03:58:54.170Z,52.55
2018-05-26T03:59:54.117Z,52.45
2018-05-26T04:00:54.227Z,52.36
2018-05-26T04:01:54.078Z,52.75
2018-05-26T04:02:54.054Z,52.45
2018-05-26T04:03:54.032Z,52.55
2018-05-26T04:04:53.987Z,52.55
2018-05-26T04:05:54.116Z,53.13
2018-05-26T04:06:53.944Z,52.55
2018-05-26T04:07:53.894Z,53.03
2018-05-26T04:08:53.887Z,52.84
2018-05-26T04:09:53.865Z,52.84
2018-05-26T04:10:53.920Z,52.81
2018-05-26T04:11:53.793Z,53.03
2018-05-26T04:12:53.769Z,53.11
2018-05-26T04:13:53.723Z,53.20
2018-05-26T04:14:53.705Z,53.11
2018-05-26T04:15:53.740Z,53.01
2018-05-26T04:16:53.754Z,53.23
2018-05-26T04:17:53.625Z,53.42
2018-05-26T04:18:53.618Z,52.94
2018-05-26T04:19:53.565Z,53.42
2018-05-26T04:20:53.535Z,54.07
2018-05-26T04:21:53.722Z,53.71
2018-05-26T04:22:53.476Z,53.71
2018-05-26T04:23:53.462Z,54.00
2018-05-26T04:24:53.416Z,53.71
2018-05-26T04:25:53.413Z,54.00
2018-05-26T04:26:53.400Z,54.00
2018-05-26T04:27:53.460Z,54.19
2018-05-26T04:28:53.356Z,54.19
2018-05-26T04:29:53.293Z,54.49
2018-05-26T04:30:53.273Z,54.19
2018-05-26T04:31:53.233Z,54.10
2018-05-26T04:32:53.239Z,54.39
2018-05-26T04:33:53.229Z,54.58
2018-05-26T04:34:53.180Z,54.58
2018-05-26T04:35:53.181Z,55.16
2018-05-26T04:36:53.090Z,55.07
2018-05-26T04:37:53.066Z,54.99
2018-05-26T04:38:53.162Z,54.97
2018-05-26T04:39:53.064Z,54.61
2018-05-26T04:40:52.985Z,55.29
2018-05-26T04:41:52.986Z,55.47
2018-05-26T04:42:53.003Z,54.97
2018-05-26T04:43:53.009Z,54.90
2018-05-26T04:44:52.888Z,55.19
2018-05-26T04:45:52.851Z,54.97
2018-05-26T04:46:52.837Z,55.09
2018-05-26T04:47:52.815Z,55.29
2018-05-26T04:48:52.827Z,55.38
2018-05-26T04:49:52.743Z,55.38
2018-05-26T04:50:52.735Z,55.67
2018-05-26T04:51:52.681Z,55.83
2018-05-26T04:52:52.658Z,55.45
2018-05-26T04:53:52.642Z,56.22
2018-05-26T04:54:52.602Z,55.83
2018-05-26T04:55:52.574Z,56.22
2018-05-26T04:56:52.566Z,56.32
2018-05-26T04:57:52.522Z,56.71
2018-05-26T04:58:52.501Z,56.61
2018-05-26T04:59:52.597Z,56.54
2018-05-26T05:00:52.434Z,56.25
2018-05-26T05:01:52.404Z,56.35
2018-05-26T05:02:52.417Z,56.25
2018-05-26T05:03:52.383Z,56.63
2018-05-26T05:04:52.353Z,57.21
2018-05-26T05:05:52.307Z,57.21
2018-05-26T05:06:52.359Z,56.93
2018-05-26T05:07:52.247Z,57.19
2018-05-26T05:08:52.227Z,56.45
2018-05-26T05:09:52.196Z,56.63
2018-05-26T05:10:52.192Z,57.12
2018-05-26T05:11:52.153Z,57.31
2018-05-26T05:12:52.124Z,57.12
2018-05-26T05:13:52.096Z,57.31
2018-05-26T05:14:52.075Z,57.29
2018-05-26T05:15:52.052Z,57.21
2018-05-26T05:16:52.013Z,57.31
2018-05-26T05:17:51.982Z,57.31
2018-05-26T05:18:51.965Z,57.60
2018-05-26T05:19:52.207Z,57.60
2018-05-26T05:20:52.013Z,57.70
2018-05-26T05:21:51.926Z,57.70
2018-05-26T05:22:51.863Z,57.60
2018-05-26T05:23:51.836Z,57.31
2018-05-26T05:24:51.803Z,57.79
2018-05-26T05:25:51.761Z,58.37
2018-05-26T05:26:51.859Z,58.28
2018-05-26T05:27:51.707Z,58.57
2018-05-26T05:28:51.689Z,58.57
2018-05-26T05:29:51.662Z,58.37
2018-05-26T05:30:51.638Z,58.09
2018-05-26T05:31:51.596Z,58.47
2018-05-26T05:32:51.579Z,58.18
2018-05-26T05:33:51.550Z,58.57
2018-05-26T05:34:51.529Z,58.86
2018-05-26T05:35:51.505Z,58.37
2018-05-26T05:36:51.520Z,58.47
2018-05-26T05:37:51.451Z,58.86
2018-05-26T05:38:51.423Z,58.95
2018-05-26T05:39:51.393Z,59.15
2018-05-26T05:40:51.366Z,58.57
2018-05-26T05:41:51.338Z,58.67
2018-05-26T05:42:51.430Z,58.95
2018-05-26T05:43:51.264Z,59.34
2018-05-26T05:44:51.244Z,59.83
2018-05-26T05:45:51.231Z,59.53
2018-05-26T05:46:51.208Z,59.83
2018-05-26T05:47:51.172Z,59.73
2018-05-26T05:48:51.145Z,59.86
2018-05-26T05:49:51.212Z,59.73
2018-05-26T05:50:51.086Z,59.53
2018-05-26T05:51:51.074Z,60.02
2018-05-26T05:52:51.036Z,60.11
2018-05-26T05:53:51.015Z,59.66
2018-05-26T05:54:50.996Z,60.11
2018-05-26T05:55:50.955Z,60.50
2018-05-26T05:56:50.924Z,60.11
2018-05-26T05:57:51.007Z,60.21
2018-05-26T05:58:50.874Z,60.02
2018-05-26T05:59:50.829Z,60.60
2018-05-26T06:00:50.810Z,60.50
2018-05-26T06:01:50.803Z,60.31
2018-05-26T06:02:50.857Z,61.08
2018-05-26T06:03:50.732Z,60.89
2018-05-26T06:04:50.744Z,60.79
2018-05-26T06:05:50.670Z,60.69
2018-05-26T06:06:50.642Z,60.99
2018-05-26T06:07:50.680Z,61.08
2018-05-26T06:08:50.638Z,60.99
2018-05-26T06:09:50.572Z,61.08
2018-05-26T06:10:50.559Z,61.27
2018-05-26T06:11:50.521Z,60.89
2018-05-26T06:12:50.583Z,60.99
2018-05-26T06:13:50.460Z,61.02
2018-05-26T06:14:50.519Z,61.21
2018-05-26T06:15:50.422Z,61.27
2018-05-26T06:16:50.382Z,61.08
2018-05-26T06:17:50.443Z,61.57
2018-05-26T06:18:50.430Z,61.37
2018-05-26T06:19:50.293Z,61.66
2018-05-26T06:20:50.291Z,61.76
2018-05-26T06:21:50.236Z,61.27
2018-05-26T06:22:50.278Z,61.76
2018-05-26T06:23:50.372Z,61.47
2018-05-26T06:24:50.154Z,61.66
2018-05-26T06:25:50.150Z,61.57
2018-05-26T06:26:50.123Z,62.08
2018-05-26T06:27:50.096Z,62.05
2018-05-26T06:28:50.112Z,62.53
2018-05-26T06:29:50.039Z,62.34
2018-05-26T06:30:50.014Z,62.37
2018-05-26T06:31:50.009Z,62.15
2018-05-26T06:32:49.962Z,62.47
2018-05-26T06:33:49.933Z,62.44
2018-05-26T06:34:50.003Z,62.82
2018-05-26T06:35:49.919Z,62.82
2018-05-26T06:36:49.852Z,62.76
2018-05-26T06:37:49.807Z,62.76
2018-05-26T06:38:49.783Z,62.95
2018-05-26T06:39:49.817Z,63.05
2018-05-26T06:40:49.745Z,63.05
2018-05-26T06:41:49.714Z,63.14
2018-05-26T06:42:49.686Z,62.85
2018-05-26T06:43:49.675Z,62.95
2018-05-26T06:44:49.721Z,62.95
2018-05-26T06:45:49.645Z,63.24
2018-05-26T06:46:49.593Z,63.14
2018-05-26T06:47:49.596Z,63.34
2018-05-26T06:48:49.514Z,63.82
2018-05-26T06:49:49.551Z,63.63
2018-05-26T06:50:49.472Z,63.63
2018-05-26T06:51:49.437Z,63.92
2018-05-26T06:52:49.421Z,63.73
2018-05-26T06:53:49.396Z,63.34
2018-05-26T06:54:49.461Z,63.63
2018-05-26T06:55:49.433Z,64.11
2018-05-26T06:56:49.308Z,64.18
2018-05-26T06:57:49.296Z,64.01
2018-05-26T06:58:49.390Z,63.82
2018-05-26T06:59:49.261Z,64.47
2018-05-26T07:00:49.290Z,64.31
2018-05-26T07:01:49.190Z,64.95
2018-05-26T07:02:49.181Z,64.69
2018-05-26T07:03:49.163Z,64.79
2018-05-26T07:04:49.101Z,64.37
2018-05-26T07:05:49.107Z,64.40
2018-05-26T07:06:49.081Z,65.08
2018-05-26T07:07:49.063Z,64.98
2018-05-26T07:08:49.021Z,64.85
2018-05-26T07:09:48.951Z,64.85
2018-05-26T07:10:48.917Z,64.95
2018-05-26T07:11:49.071Z,64.37
2018-05-26T07:12:48.943Z,64.85
2018-05-26T07:13:48.846Z,64.85
2018-05-26T07:14:48.848Z,65.72
2018-05-26T07:15:48.796Z,65.53
2018-05-26T07:16:48.864Z,65.66
2018-05-26T07:17:48.727Z,65.66
2018-05-26T07:18:48.708Z,65.47
2018-05-26T07:19:48.718Z,65.47
2018-05-26T07:20:48.674Z,65.66
2018-05-26T07:21:48.668Z,65.34
2018-05-26T07:22:48.625Z,65.92
2018-05-26T07:23:48.568Z,65.82
2018-05-26T07:24:48.601Z,66.14
2018-05-26T07:25:48.521Z,66.14
2018-05-26T07:26:48.596Z,66.05
2018-05-26T07:27:48.472Z,65.72
2018-05-26T07:28:48.437Z,65.63
2018-05-26T07:29:48.436Z,66.11
2018-05-26T07:30:48.480Z,66.20
2018-05-26T07:31:48.350Z,66.40
2018-05-26T07:32:48.388Z,66.01
2018-05-26T07:33:48.337Z,66.30
2018-05-26T07:34:48.282Z,66.50
2018-05-26T07:35:48.259Z,66.98
2018-05-26T07:36:48.232Z,66.78
2018-05-26T07:37:48.194Z,66.78
2018-05-26T07:38:48.223Z,66.88
2018-05-26T07:39:48.147Z,67.08
2018-05-26T07:40:48.128Z,66.50
2018-05-26T07:41:48.095Z,67.08
2018-05-26T07:42:48.063Z,67.46
2018-05-26T07:43:48.134Z,67.17
2018-05-26T07:44:48.008Z,67.56
2018-05-26T07:45:48.012Z,67.17
2018-05-26T07:46:47.978Z,67.56
2018-05-26T07:47:47.931Z,67.17
2018-05-26T07:48:47.997Z,67.56
2018-05-26T07:49:47.911Z,67.36
2018-05-26T07:50:47.886Z,67.94
2018-05-26T07:51:47.816Z,67.85
2018-05-26T07:52:47.812Z,67.66
2018-05-26T07:53:47.871Z,67.75
2018-05-26T07:54:47.744Z,67.85
2018-05-26T07:55:47.750Z,67.85
2018-05-26T07:56:47.714Z,67.46
2018-05-26T07:57:47.772Z,67.85
2018-05-26T07:58:47.689Z,68.33
2018-05-26T07:59:47.661Z,68.33
2018-05-26T08:00:47.593Z,68.04
2018-05-26T08:01:47.628Z,68.04
2018-05-26T08:02:47.540Z,67.66
2018-05-26T08:03:47.610Z,68.14
2018-05-26T08:04:47.478Z,68.33
2018-05-26T08:05:47.464Z,68.62
2018-05-26T08:06:47.427Z,68.33
2018-05-26T08:07:47.396Z,68.14
2018-05-26T08:08:47.377Z,68.62
2018-05-26T08:09:47.540Z,68.52
2018-05-26T08:10:47.332Z,68.04
2018-05-26T08:11:47.308Z,68.62
2018-05-26T08:12:47.273Z,68.72
2018-05-26T08:13:47.237Z,68.24
2018-05-26T08:14:47.265Z,68.43
2018-05-26T08:15:47.238Z,68.14
2018-05-26T08:16:47.166Z,68.52
2018-05-26T08:17:47.123Z,68.52
2018-05-26T08:18:47.093Z,68.52
2018-05-26T08:19:47.129Z,68.62
2018-05-26T08:20:47.149Z,69.40
2018-05-26T08:21:47.029Z,69.20
2018-05-26T08:22:47.009Z,68.91
2018-05-26T08:23:46.983Z,69.01
2018-05-26T08:24:46.970Z,69.20
2018-05-26T08:25:47.043Z,69.01
2018-05-26T08:26:46.891Z,68.72
2018-05-26T08:27:46.851Z,69.40
2018-05-26T08:28:46.859Z,69.10
2018-05-26T08:29:46.812Z,69.01
2018-05-26T08:30:46.881Z,69.20
2018-05-26T08:31:46.740Z,69.78
2018-05-26T08:32:46.723Z,69.68
2018-05-26T08:33:46.708Z,69.59
2018-05-26T08:34:46.689Z,69.40
2018-05-26T08:35:46.743Z,69.30
2018-05-26T08:36:46.660Z,69.30
2018-05-26T08:37:46.587Z,69.78
2018-05-26T08:38:46.584Z,69.40
2018-05-26T08:39:46.551Z,69.68
2018-05-26T08:40:46.627Z,69.78
2018-05-26T08:41:46.513Z,69.88
2018-05-26T08:42:46.444Z,70.36
2018-05-26T08:43:46.446Z,69.88
2018-05-26T08:44:46.441Z,69.98
2018-05-26T08:45:46.403Z,70.07
2018-05-26T08:46:46.416Z,69.59
2018-05-26T08:47:46.315Z,70.36
2018-05-26T08:48:46.280Z,70.46
2018-05-26T08:49:46.296Z,70.36
2018-05-26T08:50:46.231Z,70.56
2018-05-26T08:51:46.251Z,70.56
2018-05-26T08:52:46.272Z,71.00
2018-05-26T08:53:46.186Z,70.94
2018-05-26T08:54:46.214Z,70.56
2018-05-26T08:55:46.115Z,70.42
2018-05-26T08:56:46.097Z,70.56
2018-05-26T08:57:46.118Z,71.14
2018-05-26T08:58:46.062Z,70.65
2018-05-26T08:59:46.006Z,70.36
2018-05-26T09:00:45.990Z,70.62
2018-05-26T09:01:45.939Z,71.33
2018-05-26T09:02:46.019Z,71.23
2018-05-26T09:03:45.885Z,71.14
2018-05-26T09:04:45.859Z,71.04
2018-05-26T09:05:45.844Z,71.23
2018-05-26T09:06:45.820Z,71.42
2018-05-26T09:07:45.919Z,71.23
2018-05-26T09:08:45.752Z,71.20
2018-05-26T09:09:45.733Z,71.42
2018-05-26T09:10:45.692Z,71.72
2018-05-26T09:11:45.671Z,71.78
2018-05-26T09:12:45.744Z,71.52
2018-05-26T09:13:45.612Z,71.30
2018-05-26T09:14:45.599Z,71.42
2018-05-26T09:15:45.553Z,71.52
2018-05-26T09:16:45.532Z,71.52
2018-05-26T09:17:45.605Z,71.39
2018-05-26T09:18:45.484Z,71.30
2018-05-26T09:19:45.456Z,71.72
2018-05-26T09:20:45.434Z,72.00
2018-05-26T09:21:45.408Z,71.88
2018-05-26T09:22:45.381Z,71.72
2018-05-26T09:23:45.390Z,71.91
2018-05-26T09:24:45.318Z,71.81
2018-05-26T09:25:45.367Z,72.00
2018-05-26T09:26:45.258Z,72.20
2018-05-26T09:27:45.244Z,72.26
2018-05-26T09:28:45.318Z,72.06
2018-05-26T09:29:45.196Z,72.58
2018-05-26T09:30:45.142Z,72.06
2018-05-26T09:31:45.144Z,71.97
2018-05-26T09:32:45.146Z,72.10
2018-05-26T09:33:45.269Z,71.68
2018-05-26T09:34:45.030Z,73.03
2018-05-26T09:35:45.027Z,71.78
2018-05-26T09:36:44.981Z,71.97
2018-05-26T09:37:44.976Z,72.55
2018-05-26T09:38:45.033Z,72.06
2018-05-26T09:39:44.926Z,72.74
2018-05-26T09:40:44.873Z,72.45
2018-05-26T09:41:44.918Z,72.74
2018-05-26T09:42:44.874Z,72.36
2018-05-26T09:43:44.990Z,72.06
2018-05-26T09:44:44.797Z,72.06
2018-05-26T09:45:44.745Z,72.45
2018-05-26T09:46:44.733Z,72.55
2018-05-26T09:47:44.769Z,72.94
2018-05-26T09:48:44.738Z,72.94
2018-05-26T09:49:44.658Z,72.94
2018-05-26T09:50:44.623Z,73.03
2018-05-26T09:51:44.585Z,72.84
2018-05-26T09:52:44.554Z,72.74
2018-05-26T09:53:44.532Z,72.84
2018-05-26T09:54:44.623Z,72.64
2018-05-26T09:55:44.522Z,72.74
2018-05-26T09:56:44.453Z,72.84
2018-05-26T09:57:44.557Z,72.45
2018-05-26T09:58:44.397Z,73.03
2018-05-26T09:59:44.383Z,73.03
2018-05-26T10:00:44.452Z,72.94
2018-05-26T10:01:44.315Z,72.94
2018-05-26T10:02:44.295Z,73.71
2018-05-26T10:03:44.247Z,73.71
2018-05-26T10:04:44.224Z,73.80
2018-05-26T10:05:44.256Z,73.71
2018-05-26T10:06:44.177Z,73.52
2018-05-26T10:07:44.157Z,73.61
2018-05-26T10:08:44.127Z,73.80
2018-05-26T10:09:44.097Z,73.22
2018-05-26T10:10:44.118Z,73.71
2018-05-26T10:11:44.057Z,73.42
2018-05-26T10:12:44.001Z,73.52
2018-05-26T10:13:44.017Z,73.42
2018-05-26T10:14:44.006Z,73.32
2018-05-26T10:15:43.970Z,73.13
2018-05-26T10:16:43.909Z,73.61
2018-05-26T10:17:43.905Z,73.42
2018-05-26T10:18:43.858Z,73.52
2018-05-26T10:19:43.813Z,73.61
2018-05-26T10:20:43.845Z,73.42
2018-05-26T10:21:43.796Z,73.22
2018-05-26T10:22:43.766Z,73.71
2018-05-26T10:23:43.703Z,74.10
2018-05-26T10:24:43.689Z,73.80
2018-05-26T10:25:43.777Z,73.80
2018-05-26T10:26:43.624Z,73.80
2018-05-26T10:27:43.617Z,73.71
2018-05-26T10:28:43.580Z,73.80
2018-05-26T10:29:43.553Z,73.42
2018-05-26T10:30:43.523Z,73.61
2018-05-26T10:31:43.594Z,73.32
2018-05-26T10:32:43.466Z,73.61
2018-05-26T10:33:43.452Z,73.71
2018-05-26T10:34:43.421Z,73.71
2018-05-26T10:35:43.396Z,74.10
2018-05-26T10:36:43.389Z,73.80
2018-05-26T10:37:43.444Z,73.90
2018-05-26T10:38:43.318Z,74.00
2018-05-26T10:39:43.334Z,74.10
2018-05-26T10:40:43.260Z,73.80
2018-05-26T10:41:43.239Z,74.00
2018-05-26T10:42:43.303Z,74.10
2018-05-26T10:43:43.174Z,74.00
2018-05-26T10:44:43.150Z,74.00
2018-05-26T10:45:43.115Z,74.00
2018-05-26T10:46:43.110Z,74.19
2018-05-26T10:47:43.175Z,74.10
2018-05-26T10:48:43.047Z,73.90
2018-05-26T10:49:43.022Z,73.90
2018-05-26T10:50:42.987Z,73.90
2018-05-26T10:51:42.957Z,73.90
2018-05-26T10:52:43.033Z,74.10
2018-05-26T10:53:42.955Z,73.90
2018-05-26T10:54:42.870Z,73.90
2018-05-26T10:55:42.873Z,74.00
2018-05-26T10:56:42.821Z,73.90
2018-05-26T10:57:42.888Z,73.90
2018-05-26T10:58:42.785Z,73.90
2018-05-26T10:59:42.759Z,73.90
2018-05-26T11:00:42.719Z,74.00
2018-05-26T11:01:42.691Z,74.10
2018-05-26T11:02:42.669Z,73.94
2018-05-26T11:03:42.679Z,74.10
2018-05-26T11:04:42.594Z,74.10
2018-05-26T11:05:42.574Z,73.90
2018-05-26T11:06:42.563Z,74.13
2018-05-26T11:07:42.530Z,74.00
2018-05-26T11:08:42.563Z,74.13
2018-05-26T11:09:42.495Z,74.04
2018-05-26T11:10:42.451Z,74.04
2018-05-26T11:11:42.420Z,74.13
2018-05-26T11:12:42.382Z,74.04
2018-05-26T11:13:42.356Z,74.04
2018-05-26T11:14:42.438Z,73.80
2018-05-26T11:15:42.318Z,74.32
2018-05-26T11:16:42.269Z,74.13
2018-05-26T11:17:42.387Z,74.19
2018-05-26T11:18:42.216Z,73.84
2018-05-26T11:19:42.314Z,73.84
2018-05-26T11:20:42.172Z,74.23
2018-05-26T11:21:42.163Z,74.04
2018-05-26T11:22:42.194Z,74.00
2018-05-26T11:23:42.094Z,74.13
2018-05-26T11:24:42.288Z,73.84
2018-05-26T11:25:42.047Z,74.13
2018-05-26T11:26:42.032Z,74.04
2018-05-26T11:27:41.995Z,73.94
2018-05-26T11:28:41.949Z,74.32
2018-05-26T11:29:42.037Z,74.13
2018-05-26T11:30:41.896Z,74.04
2018-05-26T11:31:41.880Z,73.84
2018-05-26T11:32:41.857Z,73.84
2018-05-26T11:33:41.820Z,73.84
2018-05-26T11:34:41.901Z,74.32
2018-05-26T11:35:41.765Z,73.94
2018-05-26T11:36:41.757Z,74.23
2018-05-26T11:37:41.734Z,74.04
2018-05-26T11:38:41.672Z,74.13
2018-05-26T11:39:41.658Z,73.97
2018-05-26T11:40:41.742Z,74.07
2018-05-26T11:41:41.606Z,74.07
2018-05-26T11:42:41.578Z,74.17
2018-05-26T11:43:41.637Z,73.88
2018-05-26T11:44:41.535Z,73.97
2018-05-26T11:45:42.271Z,73.74
2018-05-26T11:46:41.487Z,73.88
2018-05-26T11:47:41.433Z,73.97
2018-05-26T11:48:41.420Z,73.97
2018-05-26T11:49:41.401Z,73.97
2018-05-26T11:50:41.359Z,74.17
2018-05-26T11:51:41.709Z,73.88
2018-05-26T11:52:41.342Z,74.07
2018-05-26T11:53:41.280Z,74.36
2018-05-26T11:54:41.267Z,73.97
2018-05-26T11:55:41.216Z,74.17
2018-05-26T11:56:41.228Z,73.97
2018-05-26T11:57:41.836Z,73.97
2018-05-26T11:58:41.164Z,74.27
2018-05-26T11:59:41.116Z,74.27
2018-05-26T12:00:41.095Z,74.07
2018-05-26T12:01:41.074Z,73.49
2018-05-26T12:02:41.078Z,73.68
2018-05-26T12:03:41.109Z,73.72
2018-05-26T12:04:40.964Z,73.72
2018-05-26T12:05:40.965Z,73.78
2018-05-26T12:06:40.971Z,74.01
2018-05-26T12:07:40.991Z,73.97
2018-05-26T12:08:40.891Z,73.20
2018-05-26T12:09:40.885Z,73.10
2018-05-26T12:10:40.842Z,73.14
2018-05-26T12:11:40.790Z,73.14
2018-05-26T12:12:40.780Z,72.85
2018-05-26T12:13:40.745Z,72.75
2018-05-26T12:14:40.811Z,72.75
2018-05-26T12:15:40.683Z,73.04
2018-05-26T12:16:40.642Z,72.56
2018-05-26T12:17:40.634Z,72.85
2018-05-26T12:18:40.629Z,72.56
2018-05-26T12:19:40.605Z,72.85
2018-05-26T12:20:40.554Z,72.95
2018-05-26T12:21:40.538Z,71.88
2018-05-26T12:22:40.503Z,72.56
2018-05-26T12:23:40.519Z,72.36
2018-05-26T12:24:40.462Z,72.08
2018-05-26T12:25:40.543Z,72.08
2018-05-26T12:26:40.388Z,71.98
2018-05-26T12:27:40.426Z,71.98
2018-05-26T12:28:40.433Z,71.40
2018-05-26T12:29:40.305Z,71.50
2018-05-26T12:30:40.295Z,71.40
2018-05-26T12:31:40.253Z,71.69
2018-05-26T12:32:40.231Z,71.11
2018-05-26T12:33:40.364Z,71.50
2018-05-26T12:34:40.181Z,70.72
2018-05-26T12:35:40.404Z,71.40
2018-05-26T12:36:40.121Z,70.66
2018-05-26T12:37:40.073Z,70.95
2018-05-26T12:38:40.180Z,70.76
2018-05-26T12:39:40.060Z,69.98
2018-05-26T12:40:40.224Z,70.08
2018-05-26T12:41:40.014Z,70.47
2018-05-26T12:42:39.982Z,70.27
2018-05-26T12:43:40.033Z,70.18
2018-05-26T12:44:39.968Z,69.89
2018-05-26T12:45:39.916Z,69.59
2018-05-26T12:46:39.879Z,69.79
2018-05-26T12:47:39.866Z,70.08
2018-05-26T12:48:39.875Z,70.01
2018-05-26T12:49:39.777Z,72.11
2018-05-26T12:50:39.846Z,73.95
2018-05-26T12:51:39.824Z,77.14